Time;durP1;ratioP1;P1;durP2;ratioP2;P2;SDS_P1;SDS_P2;PMS_P1;PMS_P2;Temp;Humidity;BMP_temperature;BMP_pressure;BME280_temperature;BME280_humidity;BME280_pressure;Samples;Min_cycle;Max_cycle;Signal;HPM_P1;HPM_P2
2021/10/06 00:01:34;;;;;;;5.80;2.08;;;;;;;12.40;72.65;99353.13;5035376;28;20068;-62
2021/10/06 00:04:24;;;;;;;5.85;2.63;;;;;;;12.40;72.09;99362.66;5035337;28;20108;-62
2021/10/06 00:07:14;;;;;;;9.07;2.75;;;;;;;12.40;72.32;99358.31;5034950;28;20104;-62
2021/10/06 00:09:58;;;;;;;11.30;2.40;;;;;;;12.39;72.30;99351.41;5035639;28;20049;-62
2021/10/06 00:12:53;;;;;;;8.07;2.78;;;;;;;12.38;72.51;99357.47;5034640;28;20115;-62
2021/10/06 00:15:46;;;;;;;8.65;2.38;;;;;;;12.39;72.57;99371.34;5034964;28;20527;-63
2021/10/06 00:18:39;;;;;;;6.50;2.33;;;;;;;12.35;72.51;99362.69;5036018;28;20183;-63
2021/10/06 00:21:30;;;;;;;9.45;2.20;;;;;;;12.36;72.52;99371.34;5035199;28;20516;-62
2021/10/06 00:24:28;;;;;;;7.03;1.98;;;;;;;12.34;72.69;99376.53;5035514;28;20056;-63
2021/10/06 00:27:18;;;;;;;8.57;2.53;;;;;;;12.33;72.35;99378.25;5035900;28;20060;-62
2021/10/06 00:30:14;;;;;;;12.80;2.80;;;;;;;12.34;72.56;99376.53;5034064;28;20140;-62
2021/10/06 00:32:58;;;;;;;8.18;3.30;;;;;;;12.34;72.54;99386.94;5034465;28;20111;-62
2021/10/06 00:35:47;;;;;;;;;;;;;;;12.30;72.25;99385.22;5034671;28;20536;-62
2021/10/06 00:38:43;;;;;;;11.52;3.38;;;;;;;12.30;72.50;99386.06;5034882;28;19928;-62
2021/10/06 00:41:41;;;;;;;8.05;2.35;;;;;;;12.31;72.29;99403.38;5033513;28;20045;-62
2021/10/06 00:44:38;;;;;;;7.90;2.67;;;;;;;12.32;72.14;99399.06;5034472;28;20099;-62
2021/10/06 00:47:30;;;;;;;7.72;2.85;;;;;;;12.30;72.38;99396.44;5034092;28;20111;-64
2021/10/06 00:50:23;;;;;;;8.57;2.70;;;;;;;12.31;72.53;99394.72;5034089;28;20061;-62
2021/10/06 00:53:10;;;;;;;9.27;2.67;;;;;;;12.30;72.31;99396.44;5033926;28;20131;-62
2021/10/06 00:56:00;;;;;;;13.63;3.10;;;;;;;12.30;72.69;99414.63;5035092;28;20455;-62
2021/10/06 00:58:47;;;;;;;11.68;3.05;;;;;;;12.29;72.62;99409.47;5034984;28;20091;-62
2021/10/06 01:01:42;;;;;;;9.98;2.72;;;;;;;12.29;72.35;99412.94;5034769;28;20103;-62
2021/10/06 01:04:35;;;;;;;12.40;2.88;;;;;;;12.29;72.76;99405.13;5033636;28;20196;-62
2021/10/06 01:07:24;;;;;;;7.00;3.15;;;;;;;12.29;72.17;99410.34;5034647;28;20052;-62
2021/10/06 01:10:09;;;;;;;7.13;2.78;;;;;;;12.31;72.36;99418.97;5033660;28;20048;-62
2021/10/06 01:13:04;;;;;;;7.82;3.17;;;;;;;12.30;72.51;99418.97;5034017;28;20060;-62
2021/10/06 01:15:59;;;;;;;10.38;2.70;;;;;;;12.29;72.86;99418.13;5034579;28;20044;-62
2021/10/06 01:18:43;;;;;;;8.32;2.92;;;;;;;12.28;72.27;99412.91;5033476;28;20055;-62
2021/10/06 01:21:27;;;;;;;7.45;2.13;;;;;;;12.29;72.82;99420.72;5034613;28;20583;-62
2021/10/06 01:24:19;;;;;;;7.70;2.90;;;;;;;12.30;72.62;99429.38;5034726;28;20044;-62
2021/10/06 01:27:10;;;;;;;8.57;3.05;;;;;;;12.30;72.44;99429.38;5033224;28;20067;-62
2021/10/06 01:29:57;;;;;;;6.70;2.17;;;;;;;12.29;72.92;99430.25;5034317;28;20527;-62
2021/10/06 01:32:51;;;;;;;10.18;2.45;;;;;;;12.26;72.70;99428.53;5034041;28;20044;-64
2021/10/06 01:35:43;;;;;;;11.45;2.67;;;;;;;12.25;72.27;99428.50;5033039;28;20052;-64
2021/10/06 01:38:31;;;;;;;8.48;2.63;;;;;;;12.25;72.46;99436.28;5033406;28;20152;-64
2021/10/06 01:41:23;;;;;;;7.45;2.88;;;;;;;12.24;72.15;99430.25;5034010;28;20044;-64
2021/10/06 01:44:12;;;;;;;16.55;3.55;;;;;;;12.22;72.28;99424.19;5032776;28;20120;-62
2021/10/06 01:47:04;;;;;;;6.53;2.10;;;;;;;12.23;72.29;99440.63;5034299;28;20443;-62
2021/10/06 01:49:49;;;;;;;9.55;2.80;;;;;;;12.23;72.61;99435.44;5033345;28;20464;-62
2021/10/06 01:52:36;;;;;;;12.93;2.70;;;;;;;12.23;72.39;99451.00;5032812;28;20132;-62
2021/10/06 01:55:28;;;;;;;6.97;2.83;;;;;;;12.23;72.36;99438.91;5032909;28;20555;-62
2021/10/06 01:58:18;;;;;;;10.45;3.28;;;;;;;12.22;72.55;99447.56;5032864;28;20512;-62
2021/10/06 02:01:11;;;;;;;7.03;2.75;;;;;;;12.23;72.39;99440.63;5033605;28;20075;-62
2021/10/06 02:04:05;;;;;;;6.32;2.28;;;;;;;12.22;72.47;99449.31;5032597;28;20099;-62
2021/10/06 02:06:58;;;;;;;7.65;3.40;;;;;;;12.21;72.51;99447.56;5047111;28;20044;-63
2021/10/06 02:09:51;;;;;;;7.90;2.78;;;;;;;12.19;72.73;99457.94;5032583;28;20129;-63
2021/10/06 02:12:35;;;;;;;8.80;2.97;;;;;;;12.20;72.50;99453.63;5032529;28;20096;-62
2021/10/06 02:15:19;;;;;;;11.13;2.75;;;;;;;12.20;72.80;99449.28;5033350;28;20056;-61
2021/10/06 02:18:11;;;;;;;10.98;3.05;;;;;;;12.20;72.52;99448.44;5033590;28;20589;-62
2021/10/06 02:21:00;;;;;;;6.45;2.30;;;;;;;12.18;72.53;99438.03;5032342;28;20048;-63
2021/10/06 02:23:55;;;;;;;9.70;3.17;;;;;;;12.19;72.48;99444.97;5032706;28;20455;-63
2021/10/06 02:26:53;;;;;;;5.40;2.08;;;;;;;12.17;72.10;99449.28;5033072;28;20053;-62
2021/10/06 02:29:48;;;;;;;7.82;2.55;;;;;;;12.17;72.29;99444.09;5033470;28;20044;-62
2021/10/06 02:32:36;;;;;;;9.35;3.08;;;;;;;12.16;72.52;99450.16;5033791;28;20515;-62
2021/10/06 02:35:24;;;;;;;10.57;2.97;;;;;;;12.15;72.24;99451.00;5032457;28;20057;-64
2021/10/06 02:38:14;;;;;;;5.03;2.28;;;;;;;12.14;72.24;99441.53;5032933;28;20053;-62
2021/10/06 02:41:03;;;;;;;9.15;2.53;;;;;;;12.15;72.47;99445.81;5032110;28;20448;-62
2021/10/06 02:43:55;;;;;;;9.55;2.72;;;;;;;12.13;72.47;99453.63;5032538;28;20064;-63
2021/10/06 02:46:51;;;;;;;12.15;2.92;;;;;;;12.16;72.39;99461.44;5032319;28;20049;-64
2021/10/06 02:49:41;;;;;;;8.48;3.00;;;;;;;12.15;72.16;99454.50;5032252;28;20048;-62
2021/10/06 02:52:31;;;;;;;7.20;2.53;;;;;;;12.16;72.36;99448.44;5033058;28;20045;-62
2021/10/06 02:55:21;;;;;;;13.85;3.20;;;;;;;12.15;72.48;99464.00;5033031;28;20100;-63
2021/10/06 02:58:14;;;;;;;7.20;2.45;;;;;;;12.14;72.24;99473.53;5033069;28;20531;-63
2021/10/06 03:01:04;;;;;;;7.15;2.65;;;;;;;12.16;72.61;99463.13;5032330;28;20045;-62
2021/10/06 03:03:59;;;;;;;3.42;1.85;;;;;;;12.14;72.38;99460.56;5032050;28;20456;-62
2021/10/06 03:06:48;;;;;;;11.48;3.55;;;;;;;12.14;72.16;99457.97;5036788;28;20053;-62
2021/10/06 03:09:41;;;;;;;11.10;2.78;;;;;;;12.13;72.43;99465.75;5036058;28;20040;-63
2021/10/06 03:12:31;;;;;;;7.82;2.58;;;;;;;12.13;72.54;99473.56;5035859;28;20117;-62
2021/10/06 03:15:23;;;;;;;7.28;3.17;;;;;;;12.10;72.52;99466.59;5037617;28;20056;-63
2021/10/06 03:18:19;;;;;;;6.22;2.83;;;;;;;12.08;72.72;99467.47;5036978;28;20044;-62
2021/10/06 03:21:09;;;;;;;6.07;2.20;;;;;;;12.09;72.48;99462.28;5036754;28;20153;-62
2021/10/06 03:24:06;;;;;;;12.48;3.15;;;;;;;12.08;72.25;99465.72;5036089;28;20107;-62
2021/10/06 03:26:58;;;;;;;7.95;2.00;;;;;;;12.10;72.09;99458.81;5036898;28;20123;-62
2021/10/06 03:29:48;;;;;;;4.70;2.13;;;;;;;12.11;72.61;99470.94;5036047;28;20065;-62
2021/10/06 03:32:39;;;;;;;9.45;2.60;;;;;;;12.11;72.45;99465.75;5035902;28;20052;-62
2021/10/06 03:35:25;;;;;;;6.60;2.33;;;;;;;12.11;72.35;99460.53;5035500;28;20052;-62
2021/10/06 03:38:20;;;;;;;6.47;2.72;;;;;;;12.10;72.24;99455.38;5035034;28;20478;-64
2021/10/06 03:41:13;;;;;;;6.22;2.35;;;;;;;12.10;72.16;99450.16;5036107;28;20076;-64
2021/10/06 03:44:03;;;;;;;5.45;2.20;;;;;;;12.07;72.47;99465.75;5035573;28;20141;-64
2021/10/06 03:46:50;;;;;;;9.25;2.80;;;;;;;12.09;72.32;99459.69;5036508;28;20047;-64
2021/10/06 03:49:36;;;;;;;6.82;2.42;;;;;;;12.08;72.52;99468.34;5035054;28;20048;-64
2021/10/06 03:52:22;;;;;;;11.20;2.95;;;;;;;12.09;72.44;99467.47;5035728;28;20416;-64
2021/10/06 03:55:13;;;;;;;8.02;2.35;;;;;;;12.08;72.05;99468.34;5035249;28;20044;-63
2021/10/06 03:58:02;;;;;;;6.72;2.85;;;;;;;12.07;72.40;99469.19;5035303;28;20083;-64
2021/10/06 04:00:57;;;;;;;3.97;2.03;;;;;;;12.10;72.29;99470.94;5035121;28;20459;-64
2021/10/06 04:03:46;;;;;;;7.55;2.97;;;;;;;12.06;71.94;99475.28;5036318;28;20056;-63
2021/10/06 04:06:33;;;;;;;9.68;2.15;;;;;;;12.06;72.01;99479.59;5036164;28;20092;-64
2021/10/06 04:09:25;;;;;;;10.35;2.95;;;;;;;12.05;72.20;99472.66;5035377;28;20516;-63
2021/10/06 04:12:15;;;;;;;8.27;2.13;;;;;;;12.04;72.43;99477.00;5035203;28;20048;-63
2021/10/06 04:15:02;;;;;;;7.55;2.40;;;;;;;12.05;72.02;99478.75;5034708;28;20179;-64
2021/10/06 04:17:51;;;;;;;11.43;2.97;;;;;;;12.05;72.06;99483.94;5035944;28;20048;-63
2021/10/06 04:20:41;;;;;;;6.70;1.98;;;;;;;12.04;72.22;99495.19;5034845;28;20052;-63
2021/10/06 04:23:33;;;;;;;10.23;2.53;;;;;;;12.04;72.17;99502.97;5035726;28;20056;-64
2021/10/06 04:26:29;;;;;;;8.27;2.88;;;;;;;12.03;72.34;99488.25;5034315;28;20099;-64
2021/10/06 04:29:16;;;;;;;8.45;2.40;;;;;;;12.03;72.44;99491.72;5034403;28;20048;-63
2021/10/06 04:32:01;;;;;;;9.20;2.63;;;;;;;12.03;72.49;99493.47;5034533;28;20047;-64
2021/10/06 04:34:53;;;;;;;7.22;2.47;;;;;;;12.03;72.15;99501.25;5035305;28;20574;-63
2021/10/06 04:37:43;;;;;;;7.97;2.13;;;;;;;12.03;72.26;99520.28;5035047;28;20056;-64
2021/10/06 04:40:32;;;;;;;9.73;2.75;;;;;;;12.01;71.87;99532.38;5035156;28;20072;-64
2021/10/06 04:43:19;;;;;;;7.55;2.88;;;;;;;12.02;72.02;99520.28;5033909;28;20455;-64
2021/10/06 04:46:08;;;;;;;7.55;2.33;;;;;;;12.01;72.12;99529.78;5033850;28;20100;-63
2021/10/06 04:49:01;;;;;;;6.25;2.60;;;;;;;12.01;72.24;99536.72;5034824;28;20415;-63
2021/10/06 04:51:53;;;;;;;7.28;2.75;;;;;;;11.99;72.04;99515.09;5034023;28;20103;-63
2021/10/06 04:54:43;;;;;;;4.35;2.38;;;;;;;11.97;72.20;99501.19;5033942;28;20125;-64
2021/10/06 04:57:27;;;;;;;7.25;2.17;;;;;;;11.98;72.29;99500.34;5034242;28;20096;-63
2021/10/06 05:00:13;;;;;;;6.07;2.75;;;;;;;11.97;72.11;99511.56;5034931;28;20087;-63
2021/10/06 05:03:12;;;;;;;5.80;1.98;;;;;;;11.94;72.16;99514.16;5033724;28;20071;-64
2021/10/06 05:06:10;;;;;;;6.80;2.50;;;;;;;11.95;72.06;99532.38;5033363;28;20096;-64
2021/10/06 05:08:58;;;;;;;8.00;2.63;;;;;;;11.97;72.06;99538.44;5033889;28;20053;-64
2021/10/06 05:11:51;;;;;;;9.48;2.60;;;;;;;11.96;72.18;99541.91;5034601;28;20504;-64
2021/10/06 05:14:38;;;;;;;6.88;2.00;;;;;;;11.96;72.22;99547.09;5035008;28;20455;-64
2021/10/06 05:17:30;;;;;;;7.50;2.17;;;;;;;11.96;71.95;99548.81;5034569;28;20131;-63
2021/10/06 05:20:20;;;;;;;10.10;2.42;;;;;;;11.96;71.92;99549.69;5033427;28;20131;-64
2021/10/06 05:23:04;;;;;;;10.63;4.18;;;;;;;11.95;72.17;99562.66;5034409;28;20094;-63
2021/10/06 05:25:48;;;;;;;7.22;2.47;;;;;;;11.95;72.42;99558.34;5034800;28;20099;-63
2021/10/06 05:28:34;;;;;;;6.72;2.90;;;;;;;11.95;72.24;99554.84;5033121;28;20459;-63
2021/10/06 05:31:26;;;;;;;8.73;2.80;;;;;;;11.93;72.20;99566.97;5033632;28;20048;-64
2021/10/06 05:34:13;;;;;;;5.30;2.03;;;;;;;11.94;71.71;99553.13;5033488;28;20084;-64
2021/10/06 05:37:04;;;;;;;6.82;1.83;;;;;;;11.94;72.22;99566.09;5034500;28;20060;-63
2021/10/06 05:39:54;;;;;;;11.52;2.90;;;;;;;11.95;72.02;99580.81;5033720;28;20148;-64
2021/10/06 05:42:38;;;;;;;9.48;3.13;;;;;;;11.94;71.72;99579.97;5033072;28;20048;-64
2021/10/06 05:45:27;;;;;;;8.05;2.47;;;;;;;11.94;71.67;99587.75;5032780;28;20421;-63
2021/10/06 05:48:17;;;;;;;8.57;2.60;;;;;;;11.95;71.75;99583.41;5033332;28;20091;-64
2021/10/06 05:51:02;;;;;;;8.38;2.70;;;;;;;11.92;71.86;99588.59;5033921;28;20051;-64
2021/10/06 05:53:46;;;;;;;;;;;;;;;11.91;71.89;99590.34;5034398;28;20103;-63
2021/10/06 05:56:30;;;;;;;5.00;2.03;;;;;;;11.89;72.06;99589.47;5033036;28;20491;-64
2021/10/06 05:59:21;;;;;;;10.75;2.88;;;;;;;11.90;71.89;99592.94;5033068;28;20056;-64
2021/10/06 06:02:11;;;;;;;6.32;2.60;;;;;;;11.89;72.20;99597.25;5032715;28;20056;-64
2021/10/06 06:05:06;;;;;;;7.13;2.40;;;;;;;11.91;72.11;99600.72;5032946;28;20148;-64
2021/10/06 06:07:56;;;;;;;5.28;2.53;;;;;;;11.90;71.80;99592.94;5032570;28;20045;-63
2021/10/06 06:10:45;;;;;;;7.68;2.63;;;;;;;11.91;72.18;99595.53;5032999;28;20048;-64
2021/10/06 06:13:30;;;;;;;9.50;2.55;;;;;;;11.92;72.08;99601.59;5032863;28;20052;-64
2021/10/06 06:16:13;;;;;;;6.65;2.28;;;;;;;11.92;72.16;99596.38;5032917;28;20057;-63
2021/10/06 06:18:58;;;;;;;3.95;1.85;;;;;;;11.90;72.22;99601.59;5033909;28;20515;-63
2021/10/06 06:21:44;;;;;;;;;;;;;;;11.88;71.84;99601.59;5034359;28;20056;-64
2021/10/06 06:24:34;;;;;;;5.55;2.72;;;;;;;11.86;72.11;99602.44;5033323;28;20430;-63
2021/10/06 06:27:19;;;;;;;5.70;2.28;;;;;;;11.86;72.40;99597.25;5033781;28;20056;-64
2021/10/06 06:30:07;;;;;;;12.98;2.53;;;;;;;11.84;72.55;99607.63;5033478;28;20044;-64
2021/10/06 06:32:57;;;;;;;10.02;2.58;;;;;;;11.86;72.18;99611.09;5032361;28;20099;-64
2021/10/06 06:35:46;;;;;;;10.25;2.83;;;;;;;11.87;72.06;99604.16;5032214;28;20091;-63
2021/10/06 06:38:37;;;;;;;8.20;2.90;;;;;;;11.88;72.24;99608.50;5033752;28;20071;-63
2021/10/06 06:41:21;;;;;;;11.32;3.38;;;;;;;11.85;72.45;99609.38;5036356;28;20099;-63
2021/10/06 06:44:05;;;;;;;7.43;1.92;;;;;;;11.87;71.97;99614.56;5037731;28;20056;-64
2021/10/06 06:46:53;;;;;;;;;;;;;;;11.87;72.50;99619.75;5037860;28;20087;-64
2021/10/06 06:49:43;;;;;;;9.25;2.85;;;;;;;11.84;72.60;99614.53;5036970;28;19924;-64
2021/10/06 06:52:27;;;;;;;7.65;2.50;;;;;;;11.84;72.48;99618.00;5036596;28;20130;-63
2021/10/06 06:55:16;;;;;;;5.20;2.47;;;;;;;11.86;72.04;99624.09;5037285;28;20416;-64
2021/10/06 06:58:12;;;;;;;8.77;3.10;;;;;;;11.87;72.34;99622.34;5036177;28;20098;-64
2021/10/06 07:00:58;;;;;;;9.02;2.60;;;;;;;11.87;72.13;99632.72;5035807;28;20468;-63
2021/10/06 07:03:43;;;;;;;9.68;2.08;;;;;;;11.88;72.37;99626.69;5037201;28;20087;-63
2021/10/06 07:06:34;;;;;;;;;;;;;;;11.82;72.55;99630.13;5037646;28;20064;-64
2021/10/06 07:09:29;;;;;;;6.30;2.22;;;;;;;11.86;72.51;99636.19;5035961;28;19923;-64
2021/10/06 07:12:23;;;;;;;9.32;2.40;;;;;;;11.87;72.34;99637.91;5035629;28;20068;-64
2021/10/06 07:15:10;;;;;;;9.07;2.33;;;;;;;11.86;72.17;99633.59;5035510;28;20133;-63
2021/10/06 07:17:57;;;;;;;4.60;2.35;;;;;;;11.86;72.31;99639.66;5035884;28;20095;-64
2021/10/06 07:20:44;;;;;;;5.43;2.38;;;;;;;11.84;72.43;99623.22;5035756;28;20099;-64
2021/10/06 07:23:28;;;;;;;10.25;2.55;;;;;;;11.85;72.23;99632.75;5035754;28;20068;-64
2021/10/06 07:26:23;;;;;;;9.55;3.03;;;;;;;11.83;72.65;99631.84;5035779;28;20099;-64
2021/10/06 07:29:08;;;;;;;10.98;3.33;;;;;;;11.87;72.26;99640.53;5035679;28;20176;-64
2021/10/06 07:32:01;;;;;;;5.90;2.20;;;;;;;11.86;72.37;99637.06;5035537;28;20071;-64
2021/10/06 07:34:54;;;;;;;7.43;2.65;;;;;;;11.84;72.49;99630.13;5036686;28;20048;-64
2021/10/06 07:37:38;;;;;;;5.03;2.25;;;;;;;11.84;72.31;99651.78;5035824;28;20400;-64
2021/10/06 07:40:29;;;;;;;7.80;2.47;;;;;;;11.85;72.63;99650.91;5036349;28;20103;-63
2021/10/06 07:43:19;;;;;;;9.07;3.17;;;;;;;11.84;72.80;99653.47;5035536;28;20095;-64
2021/10/06 07:46:09;;;;;;;4.97;2.15;;;;;;;11.84;72.49;99656.06;5036189;28;20130;-63
2021/10/06 07:49:02;;;;;;;6.97;2.83;;;;;;;11.81;72.78;99661.28;5035375;28;20053;-64
2021/10/06 07:51:46;;;;;;;6.25;1.90;;;;;;;11.81;72.46;99654.34;5034971;28;20052;-64
2021/10/06 07:54:35;;;;;;;9.25;2.50;;;;;;;11.82;72.67;99658.69;5036346;28;20543;-64
2021/10/06 07:57:19;;;;;;;2.22;1.63;;;;;;;11.80;72.57;99654.34;5035178;28;20106;-63
2021/10/06 08:00:13;;;;;;;5.82;2.20;;;;;;;11.78;72.90;99651.72;5035114;28;20624;-64
2021/10/06 08:03:00;;;;;;;5.88;2.25;;;;;;;11.80;72.70;99659.53;5034456;28;20057;-64
2021/10/06 08:05:44;;;;;;;6.13;2.20;;;;;;;11.81;72.61;99662.13;5034823;28;20043;-64
2021/10/06 08:08:40;;;;;;;;;;;;;;;11.77;72.97;99655.19;5035037;28;20127;-64
2021/10/06 08:11:34;;;;;;;5.97;2.03;;;;;;;11.78;72.88;99666.44;5035923;28;20016;-64
2021/10/06 08:14:18;;;;;;;14.23;2.67;;;;;;;11.78;72.59;99661.25;5035725;28;20045;-64
2021/10/06 08:17:10;;;;;;;6.05;2.78;;;;;;;11.80;72.71;99664.75;5035990;28;20140;-64
2021/10/06 08:19:54;;;;;;;9.25;2.80;;;;;;;11.76;73.06;99671.63;5036015;28;20051;-64
2021/10/06 08:22:38;;;;;;;5.60;2.05;;;;;;;11.80;72.52;99673.38;5035500;28;20503;-64
2021/10/06 08:25:25;;;;;;;5.75;2.15;;;;;;;11.80;72.86;99681.16;5035991;28;20505;-64
2021/10/06 08:28:09;;;;;;;8.38;2.45;;;;;;;11.80;72.84;99675.97;5034530;28;20647;-63
2021/10/06 08:30:54;;;;;;;5.13;2.25;;;;;;;11.81;73.13;99693.28;5034318;28;20116;-64
2021/10/06 08:33:46;;;;;;;;;;;;;;;11.80;72.69;99695.91;5035815;28;20083;-65
2021/10/06 08:36:38;;;;;;;5.55;2.17;;;;;;;11.78;72.96;99714.03;5035304;28;19958;-64
2021/10/06 08:39:22;;;;;;;3.80;2.00;;;;;;;11.80;72.69;99712.31;5035394;28;20049;-64
2021/10/06 08:42:16;;;;;;;6.00;2.45;;;;;;;11.80;72.91;99709.72;5034293;28;20135;-64
2021/10/06 08:45:02;;;;;;;6.65;2.67;;;;;;;11.80;73.10;99719.25;5034620;28;20048;-64
2021/10/06 08:47:49;;;;;;;3.88;1.92;;;;;;;11.80;72.84;99714.91;5034656;28;20128;-64
2021/10/06 08:50:42;;;;;;;7.25;2.17;;;;;;;11.78;72.94;99716.63;5034284;28;20100;-64
2021/10/06 08:53:34;;;;;;;5.93;2.65;;;;;;;11.79;72.93;99713.19;5034974;28;20054;-64
2021/10/06 08:56:28;;;;;;;4.93;1.90;;;;;;;11.79;73.26;99712.31;5033864;28;20612;-64
2021/10/06 08:59:23;;;;;;;6.57;1.90;;;;;;;11.80;73.16;99717.50;5034773;28;20053;-64
2021/10/06 09:02:16;;;;;;;6.70;2.65;;;;;;;11.77;73.29;99746.06;5034317;28;20416;-64
2021/10/06 09:05:11;;;;;;;8.75;3.55;;;;;;;11.79;73.28;99730.50;5034082;28;20052;-62
2021/10/06 09:08:08;;;;;;;9.02;2.05;;;;;;;11.79;73.13;99733.94;5033844;28;20052;-62
2021/10/06 09:11:04;;;;;;;5.93;2.78;;;;;;;11.81;73.39;99739.19;5033554;28;20121;-63
2021/10/06 09:13:49;;;;;;;6.50;2.40;;;;;;;11.81;73.09;99752.16;5033819;28;20175;-63
2021/10/06 09:16:34;;;;;;;9.02;2.55;;;;;;;11.81;73.03;99746.97;5034996;28;20044;-63
2021/10/06 09:19:54;;;;;;;4.70;2.20;;;;;;;11.82;73.53;99749.56;5033713;28;20144;-63
2021/10/06 09:23:01;;;;;;;7.95;2.75;;;;;;;11.81;73.47;99754.75;5033449;28;20080;-62
2021/10/06 09:26:07;;;;;;;3.55;1.67;;;;;;;11.80;73.43;99758.22;5034476;28;20048;-63
2021/10/06 09:28:58;;;;;;;6.88;2.20;;;;;;;11.81;73.15;99759.94;5033546;28;20444;-63
2021/10/06 09:31:42;;;;;;;8.13;2.13;;;;;;;11.82;73.40;99761.69;5033112;28;20044;-62
2021/10/06 09:34:30;;;;;;;5.55;1.88;;;;;;;11.84;73.14;99785.91;5033286;28;20171;-62
2021/10/06 09:37:28;;;;;;;5.55;2.10;;;;;;;11.82;73.42;99772.06;5032980;28;20048;-62
2021/10/06 09:40:23;;;;;;;6.07;2.30;;;;;;;11.83;73.70;99779.84;5034311;28;20048;-62
2021/10/06 09:43:15;;;;;;;5.15;1.88;;;;;;;11.82;73.21;99783.31;5033823;28;20099;-63
2021/10/06 09:45:59;;;;;;;2.72;1.83;;;;;;;11.83;73.26;99785.06;5033038;28;20048;-62
2021/10/06 09:48:55;;;;;;;4.55;2.25;;;;;;;11.83;73.67;99789.38;5033071;28;20060;-62
2021/10/06 09:51:48;;;;;;;4.45;2.03;;;;;;;11.82;73.76;99785.06;5032938;28;20061;-62
2021/10/06 09:54:38;;;;;;;2.13;1.95;;;;;;;11.82;73.66;99788.50;5032390;28;20049;-62
2021/10/06 09:57:25;;;;;;;4.70;2.05;;;;;;;11.83;73.32;99795.44;5033220;28;20052;-62
2021/10/06 10:00:20;;;;;;;3.53;1.88;;;;;;;11.83;73.63;99787.66;5032898;28;20048;-62
2021/10/06 10:03:13;;;;;;;4.03;2.00;;;;;;;11.85;73.36;99795.44;5033427;28;20064;-62
2021/10/06 10:06:06;;;;;;;3.78;2.20;;;;;;;11.86;73.18;99804.97;5032887;28;20043;-64
2021/10/06 10:08:53;;;;;;;5.47;2.33;;;;;;;11.87;73.52;99806.72;5033335;28;20055;-64
2021/10/06 10:11:42;;;;;;;5.55;1.90;;;;;;;11.86;73.27;99811.03;5033084;28;20456;-64
2021/10/06 10:14:30;;;;;;;3.53;2.15;;;;;;;11.86;73.45;99821.44;5032553;28;20417;-62
2021/10/06 10:17:21;;;;;;;2.53;1.85;;;;;;;11.85;73.40;99813.59;5032984;28;20052;-62
2021/10/06 10:20:16;;;;;;;8.38;2.03;;;;;;;11.84;73.44;99817.94;5032729;28;20562;-63
2021/10/06 10:23:02;;;;;;;7.78;2.83;;;;;;;11.83;73.59;99831.78;5032856;28;20520;-63
2021/10/06 10:25:52;;;;;;;4.47;2.55;;;;;;;11.84;73.79;99833.53;5032310;28;20467;-62
2021/10/06 10:28:45;;;;;;;6.53;2.28;;;;;;;11.83;73.59;99834.38;5032513;28;20044;-63
2021/10/06 10:32:07;;;;;;;6.93;2.22;;;;;;;11.84;73.46;99836.13;5032772;28;20056;-63
2021/10/06 10:35:07;;;;;;;9.60;2.45;;;;;;;11.83;73.65;99836.97;5032446;28;20056;-62
2021/10/06 10:37:51;;;;;;;7.45;2.30;;;;;;;11.83;73.66;99847.38;5032211;28;20053;-62
2021/10/06 10:40:51;;;;;;;5.07;2.70;;;;;;;11.83;73.73;99842.19;5032968;28;20112;-64
2021/10/06 10:44:02;;;;;;;6.68;2.20;;;;;;;11.84;73.57;99853.41;5033004;28;20196;-63
2021/10/06 10:47:06;;;;;;;5.60;2.40;;;;;;;11.84;73.92;99854.31;5032638;28;20128;-64
2021/10/06 10:49:55;;;;;;;6.10;2.35;;;;;;;11.86;73.88;99862.09;5032794;28;20132;-64
2021/10/06 10:52:49;;;;;;;4.82;2.30;;;;;;;11.87;73.68;99858.63;5033482;28;20112;-64
2021/10/06 10:55:52;;;;;;;5.05;2.08;;;;;;;11.87;73.88;99861.25;5033145;28;20048;-63
2021/10/06 10:58:42;;;;;;;6.72;2.35;;;;;;;11.86;73.88;99859.50;5032838;28;20099;-64
2021/10/06 11:01:43;;;;;;;4.78;2.75;;;;;;;11.86;73.82;99859.50;5031704;28;20080;-63
2021/10/06 11:04:35;;;;;;;6.53;2.15;;;;;;;11.85;74.13;99855.16;5032677;28;20107;-63
2021/10/06 11:07:24;;;;;;;6.25;2.70;;;;;;;11.86;73.94;99864.69;5033216;28;20123;-64
2021/10/06 11:10:30;;;;;;;7.75;2.30;;;;;;;11.87;73.98;99875.09;5032018;28;20120;-64
2021/10/06 11:13:39;;;;;;;3.05;2.30;;;;;;;11.89;73.94;99877.69;5031869;28;20057;-63
2021/10/06 11:17:10;;;;;;;6.50;2.15;;;;;;;11.91;74.21;99872.53;5032615;28;20070;-64
2021/10/06 11:19:55;;;;;;;4.07;2.35;;;;;;;11.90;74.13;99883.78;5031859;28;20060;-64
2021/10/06 11:22:40;;;;;;;;;;;;;;;11.89;73.97;99880.28;5032632;28;20045;-64
2021/10/06 11:25:27;;;;;;;4.97;2.28;;;;;;;11.90;73.89;99904.56;5033271;28;19924;-63
2021/10/06 11:28:12;;;;;;;8.27;2.10;;;;;;;11.88;74.03;99895.03;5035728;28;20048;-63
2021/10/06 11:31:02;;;;;;;;;;;;;;;11.88;73.91;99904.53;5037120;28;20095;-64
2021/10/06 11:33:50;;;;;;;7.90;2.10;;;;;;;11.87;74.19;99898.47;5035697;28;19967;-64
2021/10/06 11:36:40;;;;;;;4.53;2.78;;;;;;;11.88;73.99;99902.81;5035796;28;20103;-63
2021/10/06 11:39:30;;;;;;;4.30;2.20;;;;;;;11.89;74.21;99914.06;5036809;28;20474;-63
2021/10/06 11:42:18;;;;;;;6.72;2.25;;;;;;;11.91;74.35;99916.69;5036635;28;20157;-63
2021/10/06 11:45:18;;;;;;;4.20;2.13;;;;;;;11.91;74.47;99916.69;5036590;28;20052;-63
2021/10/06 11:48:11;;;;;;;4.88;2.70;;;;;;;11.92;74.43;99934.88;5036341;28;20123;-64
2021/10/06 11:50:58;;;;;;;4.75;2.30;;;;;;;11.91;74.28;99927.94;5035263;28;20099;-63
2021/10/06 11:53:54;;;;;;;6.35;2.55;;;;;;;11.91;74.39;99927.94;5036016;28;20044;-64
2021/10/06 11:56:47;;;;;;;4.13;2.45;;;;;;;11.93;74.73;99935.72;5034989;28;20412;-63
2021/10/06 11:59:42;;;;;;;7.68;2.67;;;;;;;11.93;74.46;99940.91;5036036;28;20100;-64
2021/10/06 12:02:26;;;;;;;6.07;3.22;;;;;;;11.94;74.16;99932.28;5034964;28;20099;-64
2021/10/06 12:05:10;;;;;;;6.35;3.22;;;;;;;11.95;74.29;99934.91;5035622;28;20171;-63
2021/10/06 12:07:57;;;;;;;3.17;2.05;;;;;;;11.96;74.39;99946.13;5035505;28;20057;-64
2021/10/06 12:10:46;;;;;;;2.95;2.08;;;;;;;11.97;74.54;99953.09;5034717;28;20072;-63
2021/10/06 12:13:39;;;;;;;3.88;2.08;;;;;;;11.98;74.43;99954.81;5035347;28;20129;-64
2021/10/06 12:16:24;;;;;;;4.55;2.20;;;;;;;11.98;74.63;99960.94;5035397;28;20047;-63
2021/10/06 12:19:08;;;;;;;4.95;2.45;;;;;;;11.98;74.29;99960.94;5034858;28;20048;-64
2021/10/06 12:21:55;;;;;;;4.75;3.00;;;;;;;11.99;74.41;99961.78;5035695;28;20048;-63
2021/10/06 12:24:47;;;;;;;4.22;2.63;;;;;;;11.99;74.68;99967.00;5035698;28;20412;-64
2021/10/06 12:27:34;;;;;;;5.03;2.40;;;;;;;11.99;74.45;99973.03;5034655;28;20111;-64
2021/10/06 12:30:28;;;;;;;6.10;2.65;;;;;;;12.01;74.63;99975.66;5035362;28;20044;-64
2021/10/06 12:33:14;;;;;;;4.97;2.70;;;;;;;12.00;74.71;99979.13;5034524;28;20099;-63
2021/10/06 12:36:06;;;;;;;5.70;2.85;;;;;;;11.99;74.70;99988.63;5034409;28;20108;-63
2021/10/06 12:38:56;;;;;;;3.78;2.38;;;;;;;12.02;74.32;99983.47;5034274;28;20451;-64
2021/10/06 12:41:43;;;;;;;3.33;2.30;;;;;;;12.03;74.25;99986.94;5034172;28;20584;-64
2021/10/06 12:44:32;;;;;;;4.85;2.13;;;;;;;12.02;74.22;99983.47;5034878;28;20144;-64
2021/10/06 12:47:19;;;;;;;3.53;2.45;;;;;;;12.03;74.66;99993.00;5035163;28;20136;-63
2021/10/06 12:50:08;;;;;;;5.05;2.75;;;;;;;12.05;74.57;99994.75;5033736;28;20048;-63
2021/10/06 12:52:52;;;;;;;4.72;2.42;;;;;;;12.04;74.55;99986.09;5035055;28;20048;-64
2021/10/06 12:55:39;;;;;;;6.13;2.88;;;;;;;12.03;74.20;99998.19;5034109;28;20044;-64
2021/10/06 12:58:23;;;;;;;4.20;2.78;;;;;;;12.03;74.24;99998.19;5034301;28;20094;-63
2021/10/06 13:01:07;;;;;;;4.88;2.75;;;;;;;12.03;74.63;100005.97;5034808;28;20132;-63
2021/10/06 13:03:54;;;;;;;2.65;2.20;;;;;;;12.04;74.66;100006.88;5035274;28;20103;-64
2021/10/06 13:06:49;;;;;;;5.90;2.47;;;;;;;12.05;74.24;100012.94;5033729;28;20044;-64
2021/10/06 13:09:34;;;;;;;4.50;2.60;;;;;;;12.06;74.50;100022.47;5033624;28;20104;-63
2021/10/06 13:12:18;;;;;;;4.65;2.40;;;;;;;12.05;74.85;100032.00;5033789;28;20084;-63
2021/10/06 13:15:04;;;;;;;5.30;2.47;;;;;;;12.06;74.42;100012.06;5033559;28;20409;-64
2021/10/06 13:17:48;;;;;;;4.97;2.40;;;;;;;12.07;74.37;100027.66;5034615;28;20413;-63
2021/10/06 13:20:32;;;;;;;4.60;2.72;;;;;;;12.07;74.70;100032.84;5033885;28;20124;-63
2021/10/06 13:23:18;;;;;;;4.15;2.25;;;;;;;12.08;74.64;100029.41;5033706;28;20052;-64